Mandarin Grace — 9V8352 — position and weather

sailwx.info

Track history (hours):
 
Tides and Currents Weather Stations Pressure Air Temp Water Temp Dewpoint Dewpoint Depression Visibility Wind Speed Wind Dir Waves Ship Positions

Mandarin Grace

Last reported at 2016-Apr-07 13:05 UTC. Time now 2016-May-01 21:19 UTC.
Position N 27°42' W 092°27'.
Warning: this ship's position is 24 days out of date.

Length 190 m; draft 12.2 m.

Type: Cargo ship. MMSI: 563862000.

Date/timePositionNaut miles runAvg speedWind from/ knotsBaromVisibWave heightAir tempDewpointWater temp
2016-Apr-07 13:05N 27°42' W 092°27'713.7
2016-Apr-07 12:33N 27°48' W 092°32'3213.8
2016-Apr-07 10:16N 28°14' W 092°53'1013.6
2016-Apr-07 09:33N 28°21' W 092°60'1713.6
2016-Apr-07 08:19N 28°35' W 093°11'1013.4
2016-Apr-07 07:33N 28°43' W 093°18'1313.0
2016-Apr-07 06:33N 28°53' W 093°27'1212.5
2016-Apr-07 05:33N 29°03' W 093°36'1211.5
2016-Apr-07 04:33N 29°14' W 093°40'1010.4
2016-Apr-07 03:33N 29°24' W 093°40'10 9.6
2016-Apr-07 02:31N 29°33' W 093°45'1010.1
2016-Apr-07 01:32N 29°42' W 093°51'9 8.7
2016-Apr-07 00:28N 29°49' W 093°58'8 8.3
2016-Apr-06 23:33N 29°56' W 093°53'0 0.4
2016-Apr-06 22:28N 29°56' W 093°52'0 0.0
2016-Apr-06 21:31N 29°56' W 093°52'0 0.0
2016-Apr-06 20:31N 29°56' W 093°52'0 0.0
2016-Apr-06 19:28N 29°56' W 093°52'0 0.0
2016-Apr-06 18:31N 29°56' W 093°52'0 0.0
2016-Apr-06 17:28N 29°56' W 093°52'0 0.0
2016-Apr-06 16:28N 29°56' W 093°52'0 0.0
2016-Apr-06 15:28N 29°56' W 093°52'0 0.0
2016-Apr-06 14:31N 29°56' W 093°52'0 0.0
2016-Apr-06 13:28N 29°56' W 093°52'0 0.0
2016-Apr-06 12:19N 29°56' W 093°52'0 0.0
2016-Apr-06 11:31N 29°56' W 093°52'0 0.0
2016-Apr-06 10:31N 29°56' W 093°52'0 0.0
2016-Apr-06 09:31N 29°56' W 093°52'0 0.0
2016-Apr-06 08:31N 29°56' W 093°52'0 0.0
2016-Apr-06 07:31N 29°56' W 093°52'0 0.0
2016-Apr-06 06:31N 29°56' W 093°52'0 0.0
2016-Apr-06 05:31N 29°56' W 093°52'0 0.0
2016-Apr-06 04:31N 29°56' W 093°52'0 0.0
2016-Apr-06 03:28N 29°56' W 093°52'0 0.0
2016-Apr-06 02:25N 29°56' W 093°52'0 0.0
2016-Apr-06 01:28N 29°56' W 093°52'0 0.0
2016-Apr-06 00:10N 29°56' W 093°52'0 0.0
2016-Apr-05 23:31N 29°56' W 093°52'0 0.0
2016-Apr-05 22:31N 29°56' W 093°52'0 0.0
2016-Apr-05 21:28N 29°56' W 093°52'0 0.0
2016-Apr-05 20:25N 29°56' W 093°52'0 0.0
2016-Apr-05 19:31N 29°56' W 093°52'0 0.0
2016-Apr-05 17:31N 29°56' W 093°52'0 0.0
2016-Apr-05 16:22N 29°56' W 093°52'0 0.0
2016-Apr-05 15:31N 29°56' W 093°52'0 0.0
2016-Apr-05 14:31N 29°56' W 093°52'0 0.0
2016-Apr-05 13:31N 29°56' W 093°52'0 0.0
2016-Apr-05 12:31N 29°56' W 093°52'0 0.0
2016-Apr-05 11:31N 29°56' W 093°52'0 0.0
2016-Apr-05 10:31N 29°56' W 093°52'0 0.0
2016-Apr-05 09:31N 29°56' W 093°52'0 0.0
2016-Apr-05 08:28N 29°56' W 093°52'0 0.0
2016-Apr-05 07:31N 29°56' W 093°52'0 0.0
2016-Apr-05 06:28N 29°56' W 093°52'0 0.0
2016-Apr-05 05:31N 29°56' W 093°52'0 0.0
2016-Apr-05 04:31N 29°56' W 093°52'0 0.0
2016-Apr-05 03:31N 29°56' W 093°52'0 0.0
2016-Apr-05 02:28N 29°56' W 093°52'0 0.0
2016-Apr-05 01:31N 29°56' W 093°52'0 0.0
2016-Apr-05 00:25N 29°56' W 093°52'0 0.0
2016-Apr-04 23:31N 29°56' W 093°52'2 2.6
2016-Apr-04 22:33N 29°54' W 093°54'19 9.3
2016-Apr-04 20:30N 29°36' W 093°48'2 2.3
2016-Apr-04 19:33N 29°36' W 093°45'0 0.0
2016-Apr-04 18:33N 29°36' W 093°45'0 0.0
2016-Apr-04 17:08N 29°36' W 093°45'0 0.0
2016-Apr-04 16:33N 29°36' W 093°45'0 0.0
2016-Apr-04 15:33N 29°36' W 093°45'0 0.0
2016-Apr-04 14:33N 29°36' W 093°45'0 0.0
2016-Apr-04 13:33N 29°36' W 093°45'0 0.0
2016-Apr-04 12:33N 29°36' W 093°45'0 0.0
2016-Apr-04 11:24N 29°36' W 093°45'1 0.7
2016-Apr-04 10:32N 29°35' W 093°45'10 9.9
2016-Apr-04 09:33N 29°29' W 093°54'4510.7
2016-Apr-04 05:22N 29°21' W 094°44'911.0
2016-Apr-04 04:33N 29°27' W 094°51'1111.3
2016-Apr-04 03:33N 29°37' W 094°57'10 9.8
2016-Apr-04 02:32N 29°45' W 095°04'6 6.5
2016-Apr-04 01:33N 29°45' W 095°11'0 0.0
2016-Apr-04 00:31N 29°45' W 095°11'0 0.0
2016-Apr-03 23:31N 29°45' W 095°11'0 0.0
2016-Apr-03 22:31N 29°45' W 095°11'0 0.0
2016-Apr-03 21:31N 29°45' W 095°11'0 0.0
2016-Apr-03 20:31N 29°45' W 095°11'0 0.0
2016-Apr-03 19:31N 29°45' W 095°11'0 0.0
2016-Apr-03 18:31N 29°45' W 095°11'0 0.0
2016-Apr-03 17:31N 29°45' W 095°11'0 0.0
2016-Apr-03 16:31N 29°45' W 095°11'0 0.0
2016-Apr-03 15:31N 29°45' W 095°11'0 0.0
2016-Apr-03 14:31N 29°45' W 095°11'0 0.0
2016-Apr-03 13:19N 29°45' W 095°11'0 0.0
2016-Apr-03 12:28N 29°45' W 095°11'0 0.0
2016-Apr-03 01:04N 29°45' W 095°11'0 0.0
2016-Apr-03 00:28N 29°45' W 095°11'0 0.0
2016-Apr-02 23:31N 29°45' W 095°11'0 0.0
2016-Apr-02 22:25N 29°45' W 095°11'0 0.0
2016-Apr-02 21:31N 29°45' W 095°11'0 0.0
2016-Apr-02 20:31N 29°45' W 095°11'0 0.0
2016-Apr-02 19:22N 29°45' W 095°11'0 0.0
2016-Apr-02 18:31N 29°45' W 095°11'0 0.0
2016-Apr-02 17:31N 29°45' W 095°11'0 0.0
2016-Apr-02 16:31N 29°45' W 095°11'0 0.0
2016-Apr-02 15:31N 29°45' W 095°11'0 0.0
2016-Apr-02 14:31N 29°45' W 095°11'0 0.0
2016-Apr-02 13:16N 29°45' W 095°11'0 0.0
2016-Apr-02 00:31N 29°45' W 095°11'0 0.0
2016-Apr-01 23:22N 29°45' W 095°11'0 0.0
2016-Apr-01 22:31N 29°45' W 095°11'0 0.0
2016-Apr-01 21:31N 29°45' W 095°11'0 0.0
2016-Apr-01 20:31N 29°45' W 095°11'0 0.0
2016-Apr-01 19:31N 29°45' W 095°11'0 0.0
2016-Apr-01 18:31N 29°45' W 095°11'0 0.0
2016-Apr-01 17:31N 29°45' W 095°11'0 0.0
2016-Apr-01 16:31N 29°45' W 095°11'0 0.0
2016-Apr-01 15:33N 29°45' W 095°11'0 0.0
2016-Apr-01 14:33N 29°45' W 095°11'0 0.0
2016-Apr-01 13:33N 29°45' W 095°11'0 0.0
2016-Apr-01 12:33N 29°45' W 095°11'0 0.0
2016-Apr-01 11:33N 29°45' W 095°11'0 0.0
2016-Apr-01 10:28N 29°45' W 095°11'0 0.0
2016-Apr-01 09:33N 29°45' W 095°11'0 0.0
2016-Apr-01 08:32N 29°45' W 095°11'0 0.0
2016-Apr-01 07:32N 29°45' W 095°11'0 0.0
2016-Apr-01 06:28N 29°45' W 095°11'0 0.0
2016-Apr-01 05:32N 29°45' W 095°11'0 0.0
2016-Apr-01 04:33N 29°45' W 095°11'0 0.0
2016-Apr-01 03:32N 29°45' W 095°11'2 2.1
2016-Apr-01 02:30N 29°44' W 095°09'6 6.4
2016-Apr-01 01:30N 29°44' W 095°02'1010.3
2016-Apr-01 00:33N 29°35' W 094°56'1212.3
2016-Mar-31 23:33N 29°24' W 094°49'19 0.6
2016-Mar-30 15:12N 29°17' W 094°29'0 0.0
2016-Mar-30 12:33N 29°17' W 094°29'0 0.0
2016-Mar-30 11:30N 29°17' W 094°29'0 0.0
2016-Mar-30 10:33N 29°17' W 094°29'0 0.0
2016-Mar-30 08:15N 29°17' W 094°29'0 0.0
2016-Mar-29 08:21N 29°17' W 094°29'0 0.0
2016-Mar-29 05:33N 29°17' W 094°29'0 0.0
2016-Mar-29 03:06N 29°17' W 094°29'0 0.0
2016-Mar-29 02:27N 29°17' W 094°29'0 0.0
2016-Mar-29 01:30N 29°17' W 094°29'0 0.0
2016-Mar-28 22:33N 29°17' W 094°29'0 0.0
2016-Mar-28 20:21N 29°17' W 094°29'0 0.0
2016-Mar-28 19:33N 29°17' W 094°29'0 0.0
2016-Mar-28 15:30N 29°17' W 094°29'  
Track history (hours):
 
Tides and Currents Weather Stations Pressure Air Temp Water Temp Dewpoint Dewpoint Depression Visibility Wind Speed Wind Dir Waves Ship Positions

Mandarin Grace

Last reported at 2016-Apr-07 13:05 UTC. Time now 2016-May-01 21:19 UTC.
Position N 27°42' W 092°27'.
Warning: this ship's position is 24 days out of date.

Length 190 m; draft 12.2 m.

Type: Cargo ship. MMSI: 563862000.

Date/timePositionNaut miles runAvg speedWind from/ knotsBaromVisibWave heightAir tempDewpointWater temp
2016-Apr-07 13:05N 27°42' W 092°27'713.7
2016-Apr-07 12:33N 27°48' W 092°32'3213.8
2016-Apr-07 10:16N 28°14' W 092°53'1013.6
2016-Apr-07 09:33N 28°21' W 092°60'1713.6
2016-Apr-07 08:19N 28°35' W 093°11'1013.4
2016-Apr-07 07:33N 28°43' W 093°18'1313.0
2016-Apr-07 06:33N 28°53' W 093°27'1212.5
2016-Apr-07 05:33N 29°03' W 093°36'1211.5
2016-Apr-07 04:33N 29°14' W 093°40'1010.4
2016-Apr-07 03:33N 29°24' W 093°40'10 9.6
2016-Apr-07 02:31N 29°33' W 093°45'1010.1
2016-Apr-07 01:32N 29°42' W 093°51'9 8.7
2016-Apr-07 00:28N 29°49' W 093°58'8 8.3
2016-Apr-06 23:33N 29°56' W 093°53'0 0.4
2016-Apr-06 22:28N 29°56' W 093°52'0 0.0
2016-Apr-06 21:31N 29°56' W 093°52'0 0.0
2016-Apr-06 20:31N 29°56' W 093°52'0 0.0
2016-Apr-06 19:28N 29°56' W 093°52'0 0.0
2016-Apr-06 18:31N 29°56' W 093°52'0 0.0
2016-Apr-06 17:28N 29°56' W 093°52'0 0.0
2016-Apr-06 16:28N 29°56' W 093°52'0 0.0
2016-Apr-06 15:28N 29°56' W 093°52'0 0.0
2016-Apr-06 14:31N 29°56' W 093°52'0 0.0
2016-Apr-06 13:28N 29°56' W 093°52'0 0.0
2016-Apr-06 12:19N 29°56' W 093°52'0 0.0
2016-Apr-06 11:31N 29°56' W 093°52'0 0.0
2016-Apr-06 10:31N 29°56' W 093°52'0 0.0
2016-Apr-06 09:31N 29°56' W 093°52'0 0.0
2016-Apr-06 08:31N 29°56' W 093°52'0 0.0
2016-Apr-06 07:31N 29°56' W 093°52'0 0.0
2016-Apr-06 06:31N 29°56' W 093°52'0 0.0
2016-Apr-06 05:31N 29°56' W 093°52'0 0.0
2016-Apr-06 04:31N 29°56' W 093°52'0 0.0
2016-Apr-06 03:28N 29°56' W 093°52'0 0.0
2016-Apr-06 02:25N 29°56' W 093°52'0 0.0
2016-Apr-06 01:28N 29°56' W 093°52'0 0.0
2016-Apr-06 00:10N 29°56' W 093°52'0 0.0
2016-Apr-05 23:31N 29°56' W 093°52'0 0.0
2016-Apr-05 22:31N 29°56' W 093°52'0 0.0
2016-Apr-05 21:28N 29°56' W 093°52'0 0.0
2016-Apr-05 20:25N 29°56' W 093°52'0 0.0
2016-Apr-05 19:31N 29°56' W 093°52'0 0.0
2016-Apr-05 17:31N 29°56' W 093°52'0 0.0
2016-Apr-05 16:22N 29°56' W 093°52'0 0.0
2016-Apr-05 15:31N 29°56' W 093°52'0 0.0
2016-Apr-05 14:31N 29°56' W 093°52'0 0.0
2016-Apr-05 13:31N 29°56' W 093°52'0 0.0
2016-Apr-05 12:31N 29°56' W 093°52'0 0.0
2016-Apr-05 11:31N 29°56' W 093°52'0 0.0
2016-Apr-05 10:31N 29°56' W 093°52'0 0.0
2016-Apr-05 09:31N 29°56' W 093°52'0 0.0
2016-Apr-05 08:28N 29°56' W 093°52'0 0.0
2016-Apr-05 07:31N 29°56' W 093°52'0 0.0
2016-Apr-05 06:28N 29°56' W 093°52'0 0.0
2016-Apr-05 05:31N 29°56' W 093°52'0 0.0
2016-Apr-05 04:31N 29°56' W 093°52'0 0.0
2016-Apr-05 03:31N 29°56' W 093°52'0 0.0
2016-Apr-05 02:28N 29°56' W 093°52'0 0.0
2016-Apr-05 01:31N 29°56' W 093°52'0 0.0
2016-Apr-05 00:25N 29°56' W 093°52'0 0.0
2016-Apr-04 23:31N 29°56' W 093°52'2 2.6
2016-Apr-04 22:33N 29°54' W 093°54'19 9.3
2016-Apr-04 20:30N 29°36' W 093°48'2 2.3
2016-Apr-04 19:33N 29°36' W 093°45'0 0.0
2016-Apr-04 18:33N 29°36' W 093°45'0 0.0
2016-Apr-04 17:08N 29°36' W 093°45'0 0.0
2016-Apr-04 16:33N 29°36' W 093°45'0 0.0
2016-Apr-04 15:33N 29°36' W 093°45'0 0.0
2016-Apr-04 14:33N 29°36' W 093°45'0 0.0
2016-Apr-04 13:33N 29°36' W 093°45'0 0.0
2016-Apr-04 12:33N 29°36' W 093°45'0 0.0
2016-Apr-04 11:24N 29°36' W 093°45'1 0.7
2016-Apr-04 10:32N 29°35' W 093°45'10 9.9
2016-Apr-04 09:33N 29°29' W 093°54'4510.7
2016-Apr-04 05:22N 29°21' W 094°44'911.0
2016-Apr-04 04:33N 29°27' W 094°51'1111.3
2016-Apr-04 03:33N 29°37' W 094°57'10 9.8
2016-Apr-04 02:32N 29°45' W 095°04'6 6.5
2016-Apr-04 01:33N 29°45' W 095°11'0 0.0
2016-Apr-04 00:31N 29°45' W 095°11'0 0.0
2016-Apr-03 23:31N 29°45' W 095°11'0 0.0
2016-Apr-03 22:31N 29°45' W 095°11'0 0.0
2016-Apr-03 21:31N 29°45' W 095°11'0 0.0
2016-Apr-03 20:31N 29°45' W 095°11'0 0.0
2016-Apr-03 19:31N 29°45' W 095°11'0 0.0
2016-Apr-03 18:31N 29°45' W 095°11'0 0.0
2016-Apr-03 17:31N 29°45' W 095°11'0 0.0
2016-Apr-03 16:31N 29°45' W 095°11'0 0.0
2016-Apr-03 15:31N 29°45' W 095°11'0 0.0
2016-Apr-03 14:31N 29°45' W 095°11'0 0.0
2016-Apr-03 13:19N 29°45' W 095°11'0 0.0
2016-Apr-03 12:28N 29°45' W 095°11'0 0.0
2016-Apr-03 01:04N 29°45' W 095°11'0 0.0
2016-Apr-03 00:28N 29°45' W 095°11'0 0.0
2016-Apr-02 23:31N 29°45' W 095°11'0 0.0
2016-Apr-02 22:25N 29°45' W 095°11'0 0.0
2016-Apr-02 21:31N 29°45' W 095°11'0 0.0
2016-Apr-02 20:31N 29°45' W 095°11'0 0.0
2016-Apr-02 19:22N 29°45' W 095°11'0 0.0
2016-Apr-02 18:31N 29°45' W 095°11'0 0.0
2016-Apr-02 17:31N 29°45' W 095°11'0 0.0
2016-Apr-02 16:31N 29°45' W 095°11'0 0.0
2016-Apr-02 15:31N 29°45' W 095°11'0 0.0
2016-Apr-02 14:31N 29°45' W 095°11'0 0.0
2016-Apr-02 13:16N 29°45' W 095°11'0 0.0
2016-Apr-02 00:31N 29°45' W 095°11'0 0.0
2016-Apr-01 23:22N 29°45' W 095°11'0 0.0
2016-Apr-01 22:31N 29°45' W 095°11'0 0.0
2016-Apr-01 21:31N 29°45' W 095°11'0 0.0
2016-Apr-01 20:31N 29°45' W 095°11'0 0.0
2016-Apr-01 19:31N 29°45' W 095°11'0 0.0
2016-Apr-01 18:31N 29°45' W 095°11'0 0.0
2016-Apr-01 17:31N 29°45' W 095°11'0 0.0
2016-Apr-01 16:31N 29°45' W 095°11'0 0.0
2016-Apr-01 15:33N 29°45' W 095°11'0 0.0
2016-Apr-01 14:33N 29°45' W 095°11'0 0.0
2016-Apr-01 13:33N 29°45' W 095°11'0 0.0
2016-Apr-01 12:33N 29°45' W 095°11'0 0.0
2016-Apr-01 11:33N 29°45' W 095°11'0 0.0
2016-Apr-01 10:28N 29°45' W 095°11'0 0.0
2016-Apr-01 09:33N 29°45' W 095°11'0 0.0
2016-Apr-01 08:32N 29°45' W 095°11'0 0.0
2016-Apr-01 07:32N 29°45' W 095°11'0 0.0
2016-Apr-01 06:28N 29°45' W 095°11'0 0.0
2016-Apr-01 05:32N 29°45' W 095°11'0 0.0
2016-Apr-01 04:33N 29°45' W 095°11'0 0.0
2016-Apr-01 03:32N 29°45' W 095°11'2 2.1
2016-Apr-01 02:30N 29°44' W 095°09'6 6.4
2016-Apr-01 01:30N 29°44' W 095°02'1010.3
2016-Apr-01 00:33N 29°35' W 094°56'1212.3
2016-Mar-31 23:33N 29°24' W 094°49'19 0.6
2016-Mar-30 15:12N 29°17' W 094°29'0 0.0
2016-Mar-30 12:33N 29°17' W 094°29'0 0.0
2016-Mar-30 11:30N 29°17' W 094°29'0 0.0
2016-Mar-30 10:33N 29°17' W 094°29'0 0.0
2016-Mar-30 08:15N 29°17' W 094°29'0 0.0
2016-Mar-29 08:21N 29°17' W 094°29'0 0.0
2016-Mar-29 05:33N 29°17' W 094°29'0 0.0
2016-Mar-29 03:06N 29°17' W 094°29'0 0.0
2016-Mar-29 02:27N 29°17' W 094°29'0 0.0
2016-Mar-29 01:30N 29°17' W 094°29'0 0.0
2016-Mar-28 22:33N 29°17' W 094°29'0 0.0
2016-Mar-28 20:21N 29°17' W 094°29'0 0.0
2016-Mar-28 19:33N 29°17' W 094°29'0 0.0
2016-Mar-28 15:30N 29°17' W 094°29'  

Dump ship's entire track history